METAR UND TAF INFORMATION

METAR FOR LOWK
ADDS - METARS form results

(0439 UTC 26 June 2022)
Data provider http://aviationweather.gov/metar/data/
 
METAR text: LOWK 260420Z AUTO 31004KT 9999 FEW090 17/13 Q1017 NOSIG
Conditions at: LOWK (KLAGENFURT(CIV/M, AT) observed 0420 UTC 26 June 2022
Temperature: 17.0°C (63°F)
Dewpoint: 13.0°C (55°F) [RH = 77%]
Pressure (altimeter): 30.03 inches Hg (1017.0 mb)
Winds: from the NW (310 degrees) at 5 MPH (4 knots; 2.1 m/s)
Visibility: 6 or more miles (10+ km)
Ceiling: at least 12,000 feet AGL
Clouds: few clouds at 9000 feet AGL
Weather: no significant weather observed at this time

METAR text: LOWK 260350Z AUTO VRB01KT 9999 FEW090 17/13 Q1017 NOSIG
Conditions at: LOWK (KLAGENFURT(CIV/M, AT) observed 0350 UTC 26 June 2022
Temperature: 17.0°C (63°F)
Dewpoint: 13.0°C (55°F) [RH = 77%]
Pressure (altimeter): 30.03 inches Hg (1017.0 mb)
Winds: variable direction winds at 1 MPH (1 knots; 0.5 m/s)
Visibility: 6 or more miles (10+ km)
Ceiling: at least 12,000 feet AGL
Clouds: few clouds at 9000 feet AGL
Weather: no significant weather observed at this time

Forecast for: LOWK (KLAGENFURT(CIV/M, AT)
Text: TAF LOWK 252315Z 2600/2624 VRB04KT 9999 FEW060 TX31/2616Z TN16/2604Z
Forecast period: 0000 UTC 26 June 2022 to 0000 UTC 27 June 2022
Forecast type: FROM: standard forecast or significant change
Winds: variable direction winds at 5 MPH (4 knots; 2.1 m/s)
Visibility: 6 or more miles (10+ km)
Ceiling: at least 12,000 feet AGL
Clouds: few clouds at 6000 feet AGL
Weather: no significant weather forecast for this period
Text: TEMPO 2611/2618 11008KT
Forecast period: 1100 to 1800 UTC 26 June 2022
Forecast type: TEMPORARY: The following changes expected for less than half the time period
Winds: from the ESE (110 degrees) at 9 MPH (8 knots; 4.1 m/s)
Visibility: missing
Ceiling: unknown
Clouds: missing
Weather: no significant weather forecast for this period

 FLUGHAFENKARTE

 RUNWAY INFORMATION
Runway 10R Runway length 2427 ft Runway width 90 ft
Runway elevation 1470 ft Runway displaced threshold 196 ft Runway heading 106
Runway 28L Runway length 2427 ft Runway width 90 ft
Runway elevation 1463 ft Runway displaced threshold 196 ft Runway heading 286
Runway 10L Runway length 8924 ft Runway width 148 ft
Runway elevation 1470 ft Runway displaced threshold 656 ft Runway heading 106
Runway 28R Runway length 8924 ft Runway width 148 ft
Runway elevation 1445 ft Runway displaced threshold 0 ft Runway heading 286

 AIRPORT FREQUENCIES
Type APP Name APP Frequency 126.825 MHZ
Type ATIS Name ATIS Frequency 124.075 MHZ
Type TWR Name TWR Frequency 118.1 MHZ

 AIRPORT NEAR NAVIGATION AIDS
Type VOR-DME Name Klagenfurt Frequency 113100 KHZ
Type NDB Name Klagenfurt Frequency 374 KHZ
Type NDB Name Klagenfurt Frequency 405 KHZ
Type VOR-DME Name Villach Frequency 112900 KHZ